Time;durP1;ratioP1;P1;durP2;ratioP2;P2;SDS_P1;SDS_P2;PMS_P1;PMS_P2;Temp;Humidity;BMP_temperature;BMP_pressure;BME280_temperature;BME280_humidity;BME280_pressure;Samples;Min_cycle;Max_cycle;Signal;HPM_P1;HPM_P2
2021/09/14 17:35:45;;;;;;;9.70;7.18;;;21.30;99.90;;;;;;4241483;27;20943;-93
2021/09/14 17:37:46;;;;;;;12.57;6.95;;;21.20;99.90;;;;;;4229337;28;20172;-93
2021/09/14 17:39:46;;;;;;;12.75;7.18;;;21.20;99.90;;;;;;4212571;28;20177;-93
2021/09/14 17:41:47;;;;;;;11.35;6.55;;;21.40;99.90;;;;;;4212454;28;20261;-93
2021/09/14 17:43:48;;;;;;;8.98;6.60;;;21.60;99.90;;;;;;4212508;28;20212;-94
2021/09/14 17:45:49;;;;;;;10.75;6.38;;;21.80;99.90;;;;;;4212600;28;20198;-93
2021/09/14 17:47:50;;;;;;;11.85;7.07;;;21.90;99.90;;;;;;4213468;28;20264;-93
2021/09/14 17:49:51;;;;;;;15.10;7.20;;;22.10;99.90;;;;;;4235127;28;20165;-91
2021/09/14 17:51:52;;;;;;;11.05;6.32;;;22.20;99.90;;;;;;4215390;28;20173;-92
2021/09/14 17:54:17;;;;;;;14.00;7.00;;;22.30;99.90;;;;;;4215081;28;20630;-93
2021/09/14 17:56:21;;;;;;;11.05;7.03;;;22.30;99.90;;;;;;4215691;28;20202;-94
2021/09/14 17:58:24;;;;;;;9.82;6.72;;;22.30;99.90;;;;;;4219701;28;20178;-91
2021/09/14 18:00:25;;;;;;;11.95;6.35;;;22.30;99.90;;;;;;4235134;28;20173;-94
2021/09/14 18:02:26;;;;;;;9.68;6.45;;;22.40;99.90;;;;;;4216518;28;20178;-91
2021/09/14 18:04:27;;;;;;;11.73;6.65;;;22.40;99.90;;;;;;4217790;28;20201;-91
2021/09/14 18:06:28;;;;;;;12.52;7.18;;;22.40;99.90;;;;;;4235634;28;20189;-96
2021/09/14 18:08:37;;;;;;;12.23;6.63;;;22.40;99.90;;;;;;4235309;28;20196;-94
2021/09/14 18:10:44;;;;;;;10.45;6.70;;;22.50;99.90;;;;;;4235591;28;20174;-93
2021/09/14 18:12:49;;;;;;;10.95;7.13;;;22.50;99.90;;;;;;4230252;28;20166;-90
2021/09/14 18:15:29;;;;;;;14.45;7.45;;;22.50;99.90;;;;;;4235791;28;20181;-93
2021/09/14 18:17:30;;;;;;;12.77;7.22;;;22.50;99.90;;;;;;4235507;28;20162;-91
2021/09/14 18:19:31;;;;;;;12.07;7.20;;;22.40;99.90;;;;;;4221530;28;20640;-92
2021/09/14 18:21:32;;;;;;;11.85;7.57;;;22.40;99.90;;;;;;4223501;28;20196;-90
2021/09/14 18:23:33;;;;;;;19.88;7.80;;;22.30;99.90;;;;;;4234353;28;20169;-91
2021/09/14 18:25:34;;;;;;;11.38;6.78;;;22.40;99.90;;;;;;4214385;28;20239;-94
2021/09/14 18:27:34;;;;;;;11.88;7.43;;;22.30;99.90;;;;;;4216730;28;20169;-90
2021/09/14 18:29:35;;;;;;;11.85;7.90;;;22.40;99.90;;;;;;4216796;28;20175;-93
2021/09/14 18:31:36;;;;;;;9.48;6.82;;;22.40;99.90;;;;;;4230145;28;20645;-88
2021/09/14 18:33:37;;;;;;;14.18;7.53;;;22.30;99.90;;;;;;4211623;28;20297;-93
2021/09/14 18:35:38;;;;;;;18.73;7.60;;;22.30;99.90;;;;;;4211200;28;20212;-91
2021/09/14 18:37:39;;;;;;;13.75;7.63;;;22.40;99.90;;;;;;4211332;28;20174;-89
2021/09/14 18:39:40;;;;;;;12.45;7.53;;;22.40;99.90;;;;;;4211152;28;20193;-93
2021/09/14 18:41:40;;;;;;;15.05;7.55;;;22.30;99.90;;;;;;4210987;28;20580;-94
2021/09/14 18:43:41;;;;;;;12.50;7.40;;;22.30;99.90;;;;;;4211135;28;20174;-89
2021/09/14 18:45:43;;;;;;;15.10;7.80;;;22.20;99.90;;;;;;4207404;28;20187;-91
2021/09/14 18:47:44;;;;;;;12.38;7.05;;;22.10;99.90;;;;;;4199632;28;20163;-91
2021/09/14 18:49:47;;;;;;;12.18;7.85;;;21.90;99.90;;;;;;4216545;28;20171;-92
2021/09/14 18:51:47;;;;;;;15.77;7.78;;;21.60;99.90;;;;;;4200091;28;20167;-91
2021/09/14 18:53:48;;;;;;;16.30;7.70;;;21.70;99.90;;;;;;4199522;28;20585;-90
2021/09/14 18:55:49;;;;;;;12.20;7.50;;;21.80;99.90;;;;;;4199491;28;20218;-96
2021/09/14 18:57:50;;;;;;;9.43;7.15;;;21.70;99.90;;;;;;4216575;28;20178;-91
2021/09/14 18:59:51;;;;;;;9.50;7.70;;;21.80;99.90;;;;;;4216394;28;20170;-93
2021/09/14 19:01:53;;;;;;;13.05;7.70;;;21.80;99.90;;;;;;4216048;28;20185;-91
2021/09/14 19:03:53;;;;;;;13.15;7.72;;;21.80;99.90;;;;;;4216472;28;20170;-89
2021/09/14 19:06:00;;;;;;;11.98;7.38;;;21.80;99.90;;;;;;4216206;28;20190;-90
2021/09/14 19:08:03;;;;;;;14.10;7.22;;;21.60;99.90;;;;;;4216524;28;20269;-91
2021/09/14 19:10:06;;;;;;;9.65;7.32;;;21.60;99.90;;;;;;4216401;28;20181;-90
2021/09/14 19:12:10;;;;;;;13.32;7.55;;;21.50;99.90;;;;;;4200024;28;20181;-94
2021/09/14 19:14:14;;;;;;;10.80;6.93;;;21.40;99.90;;;;;;4199803;28;20163;-96
2021/09/14 19:16:16;;;;;;;12.10;7.03;;;21.30;99.90;;;;;;4199316;28;20270;-92
2021/09/14 19:18:18;;;;;;;10.43;7.10;;;21.30;99.90;;;;;;4199728;28;20250;-93
2021/09/14 19:20:19;;;;;;;15.68;7.40;;;21.20;99.90;;;;;;4216413;28;20231;-90
2021/09/14 19:22:19;;;;;;;12.18;7.78;;;21.20;99.90;;;;;;4216352;28;20200;-90
2021/09/14 19:24:20;;;;;;;11.70;7.50;;;21.10;99.90;;;;;;4199455;28;20245;-95
2021/09/14 19:26:23;;;;;;;11.00;7.70;;;21.10;99.90;;;;;;4199579;28;20191;-91
2021/09/14 19:28:24;;;;;;;15.98;7.68;;;21.10;99.90;;;;;;4199951;28;20186;-91
2021/09/14 19:30:25;;;;;;;12.20;7.97;;;21.30;99.90;;;;;;4217079;28;20700;-94
2021/09/14 19:32:26;;;;;;;13.98;7.38;;;21.20;99.90;;;;;;4199362;28;20171;-90
2021/09/14 19:34:27;;;;;;;11.15;6.45;;;21.30;99.90;;;;;;4199137;28;20182;-90
2021/09/14 19:36:30;;;;;;;13.32;7.03;;;21.30;99.90;;;;;;4216072;28;20194;-90
2021/09/14 19:38:30;;;;;;;11.27;7.03;;;21.30;99.90;;;;;;4199402;28;20257;-91
2021/09/14 19:40:31;;;;;;;10.52;6.97;;;21.30;99.90;;;;;;4215889;28;20171;-91
2021/09/14 19:42:32;;;;;;;10.80;6.35;;;21.30;99.90;;;;;;4199137;28;20608;-90
2021/09/14 19:44:33;;;;;;;13.80;6.45;;;21.40;99.90;;;;;;4215949;28;20210;-91
2021/09/14 19:46:34;;;;;;;9.65;6.35;;;21.40;99.90;;;;;;4199089;28;20187;-95
2021/09/14 19:48:35;;;;;;;12.88;6.53;;;21.30;99.90;;;;;;4215919;28;20166;-91
2021/09/14 19:50:36;;;;;;;13.15;5.95;;;21.40;99.90;;;;;;4215825;28;20189;-90
2021/09/14 19:52:39;;;;;;;9.15;5.93;;;21.40;99.90;;;;;;4199177;28;20618;-94
2021/09/14 19:54:40;;;;;;;9.38;6.38;;;21.60;99.90;;;;;;4198902;28;20179;-90
2021/09/14 19:56:42;;;;;;;9.10;5.85;;;21.60;99.90;;;;;;4199190;28;20198;-89
2021/09/14 19:58:42;;;;;;;9.73;5.85;;;21.70;99.90;;;;;;4198027;28;20200;-91
2021/09/14 20:00:43;;;;;;;12.73;6.80;;;21.80;99.90;;;;;;4215775;28;20178;-95
2021/09/14 20:02:44;;;;;;;9.13;6.72;;;21.60;99.90;;;;;;4198735;28;20159;-90
2021/09/14 20:04:45;;;;;;;12.65;6.00;;;21.70;99.90;;;;;;4198903;28;20215;-91
2021/09/14 20:06:45;;;;;;;12.02;6.10;;;21.60;99.90;;;;;;4198932;28;20653;-91
2021/09/14 20:08:46;;;;;;;10.77;6.30;;;21.70;99.90;;;;;;4215428;28;20174;-89
2021/09/14 20:10:47;;;;;;;10.27;6.43;;;21.70;99.90;;;;;;4215499;28;20166;-95
2021/09/14 20:12:48;;;;;;;9.45;6.18;;;21.70;99.90;;;;;;4198525;28;20179;-95
2021/09/14 20:14:49;;;;;;;11.80;6.72;;;21.60;99.90;;;;;;4215495;28;20181;-95
2021/09/14 20:16:50;;;;;;;11.38;6.60;;;21.60;99.90;;;;;;4215358;28;20288;-90
2021/09/14 20:18:51;;;;;;;10.45;6.15;;;21.60;99.90;;;;;;4215380;28;20159;-89
2021/09/14 20:20:51;;;;;;;14.75;6.50;;;21.70;99.90;;;;;;4198501;28;20186;-95
2021/09/14 20:22:53;;;;;;;19.17;6.53;;;21.60;99.90;;;;;;4198395;28;20650;-94
2021/09/14 20:24:53;;;;;;;16.45;6.32;;;21.50;99.90;;;;;;4198811;28;20211;-94
2021/09/14 20:26:54;;;;;;;12.27;6.20;;;21.50;99.90;;;;;;4198340;28;20197;-89
2021/09/14 20:28:55;;;;;;;12.93;6.35;;;21.50;99.90;;;;;;4198107;28;20225;-90
2021/09/14 20:30:56;;;;;;;13.35;6.28;;;21.40;99.90;;;;;;4198040;28;20186;-95
2021/09/14 20:32:56;;;;;;;13.77;6.25;;;21.30;99.90;;;;;;4215133;28;20256;-95
2021/09/14 20:34:57;;;;;;;13.23;6.57;;;21.30;99.90;;;;;;4198395;28;20254;-92
2021/09/14 20:36:59;;;;;;;12.77;6.78;;;21.20;99.90;;;;;;4198220;28;20241;-93
2021/09/14 20:38:59;;;;;;;12.93;6.07;;;21.10;99.90;;;;;;4198382;28;20166;-90
2021/09/14 20:41:00;;;;;;;13.60;6.25;;;21.10;99.90;;;;;;4198409;28;20179;-94
2021/09/14 20:43:01;;;;;;;7.93;5.60;;;21.10;99.90;;;;;;4215072;28;20170;-91
2021/09/14 20:45:06;;;;;;;9.77;6.43;;;21.10;99.90;;;;;;4198285;28;20388;-90
2021/09/14 20:47:07;;;;;;;12.02;5.78;;;21.20;99.90;;;;;;4198195;28;20242;-92
2021/09/14 20:49:08;;;;;;;12.07;6.03;;;21.20;99.90;;;;;;4198191;28;20183;-91
2021/09/14 20:51:08;;;;;;;12.20;6.28;;;21.20;99.90;;;;;;4198185;28;20163;-91
2021/09/14 20:53:12;;;;;;;11.95;6.70;;;21.10;99.90;;;;;;4214955;28;20172;-90
2021/09/14 20:55:15;;;;;;;10.57;6.05;;;21.10;99.90;;;;;;4214709;28;20170;-90
2021/09/14 20:57:18;;;;;;;11.10;6.78;;;21.10;99.90;;;;;;4198198;28;20662;-90
2021/09/14 20:59:19;;;;;;;13.88;6.90;;;21.20;99.90;;;;;;4197919;28;20174;-90
2021/09/14 21:01:20;;;;;;;14.55;6.47;;;21.30;99.90;;;;;;4198016;28;20642;-94
2021/09/14 21:03:21;;;;;;;12.00;6.45;;;21.30;99.90;;;;;;4197873;28;20181;-90
2021/09/14 21:05:21;;;;;;;12.10;6.63;;;21.20;99.90;;;;;;4197756;28;20202;-95
2021/09/14 21:07:22;;;;;;;9.80;6.32;;;21.20;99.90;;;;;;4214725;28;20239;-91
2021/09/14 21:09:23;;;;;;;11.88;6.63;;;21.20;99.90;;;;;;4214230;28;20178;-95
2021/09/14 21:11:24;;;;;;;11.05;6.15;;;21.10;99.90;;;;;;4214351;28;20189;-95
2021/09/14 21:13:24;;;;;;;12.40;6.80;;;21.20;99.90;;;;;;4214617;28;20180;-90
2021/09/14 21:15:25;;;;;;;11.13;6.20;;;21.10;99.90;;;;;;4198140;28;20235;-90
2021/09/14 21:17:27;;;;;;;10.70;6.35;;;21.00;99.90;;;;;;4197718;28;20175;-91
2021/09/14 21:19:27;;;;;;;10.50;5.63;;;21.00;99.90;;;;;;4197724;28;20173;-91
2021/09/14 21:21:28;;;;;;;9.30;6.18;;;21.00;99.90;;;;;;4197719;28;20175;-93
2021/09/14 21:23:29;;;;;;;11.40;4.88;;;20.80;99.90;;;;;;4197779;28;20202;-89
2021/09/14 21:25:30;;;;;;;8.35;5.63;;;20.80;99.90;;;;;;4197540;28;20645;-92
2021/09/14 21:27:33;;;;;;;9.10;5.50;;;20.80;99.90;;;;;;4197847;28;20671;-89
2021/09/14 21:29:34;;;;;;;8.00;5.32;;;20.80;99.90;;;;;;4198053;28;20267;-94
2021/09/14 21:31:36;;;;;;;9.48;5.72;;;20.90;99.90;;;;;;4197786;28;20170;-90
2021/09/14 21:33:36;;;;;;;7.80;5.13;;;20.90;99.90;;;;;;4197772;28;20183;-91
2021/09/14 21:35:37;;;;;;;9.85;5.47;;;20.90;99.90;;;;;;4197787;28;20648;-94
2021/09/14 21:37:38;;;;;;;8.07;5.10;;;20.80;99.90;;;;;;4197795;28;20293;-90
2021/09/14 21:39:39;;;;;;;9.80;5.28;;;20.70;99.90;;;;;;4214212;28;20537;-90
2021/09/14 21:41:39;;;;;;;13.93;5.65;;;20.70;99.90;;;;;;4214352;28;20273;-90
2021/09/14 21:43:40;;;;;;;7.30;4.72;;;20.60;99.90;;;;;;4214210;28;20208;-90
2021/09/14 21:45:41;;;;;;;9.10;5.22;;;20.60;99.90;;;;;;4197331;28;20268;-90
2021/09/14 21:47:42;;;;;;;9.65;5.05;;;20.60;99.90;;;;;;4197302;28;20158;-96
2021/09/14 21:49:44;;;;;;;8.27;5.18;;;20.50;99.90;;;;;;4197720;28;20186;-95
2021/09/14 21:51:47;;;;;;;11.45;5.03;;;20.40;99.90;;;;;;4197776;28;20166;-96
2021/09/14 21:53:48;;;;;;;9.02;4.70;;;20.30;99.90;;;;;;4214153;28;20566;-90
2021/09/14 21:55:49;;;;;;;8.82;5.32;;;20.30;99.90;;;;;;4214087;28;20193;-92
2021/09/14 21:57:50;;;;;;;8.65;4.95;;;20.30;99.90;;;;;;4197497;28;20220;-90
2021/09/14 21:59:51;;;;;;;13.02;5.15;;;20.30;99.90;;;;;;4197690;28;20280;-90
2021/09/14 22:01:53;;;;;;;9.18;5.22;;;20.30;99.90;;;;;;4214002;28;20178;-93
2021/09/14 22:03:54;;;;;;;17.52;5.30;;;20.30;99.90;;;;;;4197267;28;20637;-89
2021/09/14 22:05:56;;;;;;;11.55;5.15;;;20.20;99.90;;;;;;4197471;28;20252;-90
2021/09/14 22:07:57;;;;;;;9.88;5.50;;;20.10;99.90;;;;;;4214021;28;20243;-93
2021/09/14 22:10:00;;;;;;;10.88;5.10;;;20.10;99.90;;;;;;4214268;28;20275;-92
2021/09/14 22:12:03;;;;;;;8.95;5.60;;;20.20;99.90;;;;;;4197440;28;20708;-93
2021/09/14 22:14:04;;;;;;;8.43;4.97;;;20.10;99.90;;;;;;4213848;28;20175;-90
2021/09/14 22:16:06;;;;;;;9.48;5.30;;;20.10;99.90;;;;;;4197457;28;20190;-95
2021/09/14 22:18:08;;;;;;;13.90;5.38;;;20.20;99.90;;;;;;4214199;28;20223;-93
2021/09/14 22:20:09;;;;;;;14.10;6.22;;;20.30;99.90;;;;;;4214273;28;20166;-94
2021/09/14 22:22:10;;;;;;;12.07;5.50;;;20.30;99.90;;;;;;4216685;28;20257;-89
2021/09/14 22:24:11;;;;;;;9.15;5.35;;;20.30;99.90;;;;;;4200301;28;20199;-93
2021/09/14 22:26:11;;;;;;;10.95;5.85;;;20.30;99.90;;;;;;4200036;28;20209;-92
2021/09/14 22:28:12;;;;;;;11.82;5.78;;;20.20;99.90;;;;;;4200194;28;20163;-90
2021/09/14 22:30:14;;;;;;;14.10;5.85;;;20.20;99.90;;;;;;4216892;28;20189;-89
2021/09/14 22:32:14;;;;;;;14.65;5.63;;;20.30;99.90;;;;;;4216861;28;20740;-89
2021/09/14 22:34:15;;;;;;;12.57;5.80;;;20.30;99.90;;;;;;4216844;28;20247;-93
2021/09/14 22:36:16;;;;;;;8.43;5.47;;;20.30;99.90;;;;;;4217130;28;20217;-94
2021/09/14 22:38:17;;;;;;;14.43;6.38;;;20.20;99.90;;;;;;4200160;28;20216;-90
2021/09/14 22:40:18;;;;;;;9.73;5.50;;;20.20;99.90;;;;;;4200248;28;20163;-92
2021/09/14 22:42:19;;;;;;;11.30;5.55;;;20.20;99.90;;;;;;4216946;28;20565;-91
2021/09/14 22:44:19;;;;;;;8.68;5.95;;;20.20;99.90;;;;;;4216856;28;20202;-88
2021/09/14 22:46:20;;;;;;;11.52;6.03;;;20.20;99.90;;;;;;4200112;28;20293;-95
2021/09/14 22:48:21;;;;;;;7.55;5.90;;;20.20;99.90;;;;;;4200083;28;20631;-94
2021/09/14 22:50:22;;;;;;;14.23;5.90;;;20.20;99.90;;;;;;4199900;28;20699;-90
2021/09/14 22:52:22;;;;;;;12.52;5.97;;;20.20;99.90;;;;;;4200156;28;20523;-90
2021/09/14 22:54:23;;;;;;;11.75;5.82;;;20.20;99.90;;;;;;4199784;28;20194;-90
2021/09/14 22:56:24;;;;;;;11.20;5.70;;;20.20;99.90;;;;;;4199781;28;20698;-92
2021/09/14 22:58:25;;;;;;;12.25;5.88;;;20.20;99.90;;;;;;4199798;28;20677;-94
2021/09/14 23:00:25;;;;;;;10.25;5.55;;;20.00;99.90;;;;;;4199913;28;20162;-90
2021/09/14 23:02:28;;;;;;;9.70;5.90;;;20.10;99.90;;;;;;4199855;28;20534;-94
2021/09/14 23:04:28;;;;;;;9.18;5.25;;;20.00;99.90;;;;;;4199924;28;20291;-93
2021/09/14 23:06:29;;;;;;;13.93;6.03;;;20.00;99.90;;;;;;4199864;28;20206;-93
2021/09/14 23:08:30;;;;;;;9.77;5.80;;;20.00;99.90;;;;;;4199823;28;20585;-89
2021/09/14 23:10:31;;;;;;;11.30;5.60;;;20.00;99.90;;;;;;4216706;28;20549;-90
2021/09/14 23:12:32;;;;;;;10.95;6.03;;;20.00;99.90;;;;;;4199467;28;20713;-90
2021/09/14 23:14:32;;;;;;;11.27;6.32;;;20.10;99.90;;;;;;4199506;28;20253;-90
2021/09/14 23:16:33;;;;;;;12.88;6.15;;;20.10;99.90;;;;;;4199346;28;20191;-90
2021/09/14 23:18:34;;;;;;;14.23;6.25;;;20.10;99.90;;;;;;4216275;28;20197;-95
2021/09/14 23:20:35;;;;;;;14.82;6.65;;;20.10;99.90;;;;;;4216337;28;20181;-93
2021/09/14 23:22:37;;;;;;;12.45;6.38;;;20.10;99.90;;;;;;4216126;28;20173;-93
2021/09/14 23:24:38;;;;;;;10.75;6.68;;;20.10;99.90;;;;;;4215987;28;20282;-94
2021/09/14 23:26:39;;;;;;;8.40;6.72;;;20.10;99.90;;;;;;4216483;28;20186;-90
2021/09/14 23:28:40;;;;;;;16.30;7.25;;;20.10;99.90;;;;;;4216001;28;20629;-89
2021/09/14 23:30:41;;;;;;;11.48;6.93;;;20.10;99.90;;;;;;4199501;28;20171;-94
2021/09/14 23:32:41;;;;;;;10.45;7.05;;;20.10;99.90;;;;;;4198958;28;20175;-90
2021/09/14 23:34:42;;;;;;;14.52;7.18;;;20.10;99.90;;;;;;4199291;28;20631;-93
2021/09/14 23:36:43;;;;;;;15.40;6.70;;;20.10;99.90;;;;;;4215872;28;20198;-91
2021/09/14 23:38:44;;;;;;;13.82;7.00;;;20.00;99.90;;;;;;4215690;28;20213;-94
2021/09/14 23:40:44;;;;;;;11.60;7.03;;;20.10;99.90;;;;;;4216017;28;20178;-93
2021/09/14 23:42:45;;;;;;;13.65;7.32;;;20.10;99.90;;;;;;4215794;28;20170;-91
2021/09/14 23:44:46;;;;;;;11.30;7.00;;;20.10;99.90;;;;;;4198932;28;20210;-94
2021/09/14 23:46:47;;;;;;;13.30;7.53;;;20.20;99.90;;;;;;4216862;28;20186;-91
2021/09/14 23:48:48;;;;;;;10.10;6.93;;;20.20;99.90;;;;;;4215721;28;20178;-93
2021/09/14 23:50:49;;;;;;;12.55;6.75;;;20.30;99.90;;;;;;4199249;28;20573;-90
2021/09/14 23:52:50;;;;;;;13.45;7.07;;;20.40;99.90;;;;;;4199339;28;20174;-90
2021/09/14 23:54:50;;;;;;;12.43;7.13;;;20.40;99.90;;;;;;4215933;28;20645;-89
2021/09/14 23:56:51;;;;;;;12.52;7.35;;;20.40;99.90;;;;;;4215979;28;20239;-93
2021/09/14 23:58:52;;;;;;;14.70;7.70;;;20.40;99.90;;;;;;4215647;28;20170;-94
